createdAt,value
2018-02-15T00:00:07.198Z,97781.67
2018-02-15T00:01:11.986Z,97786.16
2018-02-15T00:02:16.689Z,97783.34
2018-02-15T00:03:21.518Z,97803.51
2018-02-15T00:04:26.231Z,97779.20
2018-02-15T00:05:30.806Z,97765.63
2018-02-15T00:06:35.715Z,97773.86
2018-02-15T00:07:40.326Z,97773.91
2018-02-15T00:08:44.905Z,97764.00
2018-02-15T00:09:49.599Z,97777.19
2018-02-15T00:10:54.160Z,97763.20
2018-02-15T00:11:59.218Z,97772.28
2018-02-15T00:13:03.979Z,97781.70
2018-02-15T00:14:08.765Z,97765.20
2018-02-15T00:15:14.027Z,97782.06
2018-02-15T00:16:19.828Z,97766.09
2018-02-15T00:17:25.197Z,97775.97
2018-02-15T00:18:30.161Z,97761.56
2018-02-15T00:19:34.788Z,97774.73
2018-02-15T00:20:39.425Z,97754.98
2018-02-15T00:21:44.386Z,97767.32
2018-02-15T00:22:49.004Z,97757.05
2018-02-15T00:23:53.619Z,97753.73
2018-02-15T00:24:59.219Z,97752.09
2018-02-15T00:26:04.634Z,97755.81
2018-02-15T00:27:09.661Z,97752.13
2018-02-15T00:28:14.443Z,97754.96
2018-02-15T00:29:19.204Z,97765.70
2018-02-15T00:30:24.003Z,97757.42
2018-02-15T00:31:29.017Z,97754.55
2018-02-15T00:32:34.496Z,97757.90
2018-02-15T00:33:39.483Z,97768.13
2018-02-15T00:34:44.607Z,97763.59
2018-02-15T00:35:50.256Z,97763.98
2018-02-15T00:36:55.115Z,97764.47
2018-02-15T00:38:00.127Z,97758.30
2018-02-15T00:39:06.883Z,97749.66
2018-02-15T00:40:12.373Z,97769.00
2018-02-15T00:41:17.152Z,97748.05
2018-02-15T00:42:23.964Z,97748.39
2018-02-15T00:43:28.623Z,97756.25
2018-02-15T00:44:35.434Z,97762.81
2018-02-15T00:45:41.157Z,97763.68
2018-02-15T00:46:46.852Z,97762.85
2018-02-15T00:47:51.465Z,97754.66
2018-02-15T00:48:56.141Z,97736.53
2018-02-15T00:50:02.116Z,97748.06
2018-02-15T00:51:07.078Z,97740.23
2018-02-15T00:52:11.722Z,97736.49
2018-02-15T00:53:16.597Z,97752.55
2018-02-15T00:54:22.803Z,97748.05
2018-02-15T00:55:27.421Z,97758.72
2018-02-15T00:56:32.204Z,97759.53
2018-02-15T00:57:37.807Z,97755.80
2018-02-15T00:58:42.608Z,97770.66
2018-02-15T00:59:47.367Z,97758.30
2018-02-15T01:00:53.614Z,97764.06
2018-02-15T01:01:58.437Z,97776.02
2018-02-15T01:03:03.646Z,97781.38
2018-02-15T01:04:09.113Z,97765.73
2018-02-15T01:05:13.666Z,97759.15
2018-02-15T01:06:19.027Z,97751.73
2018-02-15T01:07:23.877Z,97752.55
2018-02-15T01:08:31.472Z,97755.80
2018-02-15T01:09:36.033Z,97751.73
2018-02-15T01:10:41.748Z,97762.86
2018-02-15T01:11:46.341Z,97748.81
2018-02-15T01:12:50.822Z,97758.33
2018-02-15T01:13:55.423Z,97737.34
2018-02-15T01:15:00.331Z,97736.13
2018-02-15T01:16:04.894Z,97727.11
2018-02-15T01:17:10.275Z,97715.59
2018-02-15T01:18:16.788Z,97705.68
2018-02-15T01:19:21.359Z,97712.64
2018-02-15T01:20:25.966Z,97710.17
2018-02-15T01:21:30.475Z,97704.44
2018-02-15T01:22:34.982Z,97697.85
2018-02-15T01:23:39.924Z,97695.37
2018-02-15T01:24:45.553Z,97697.86
2018-02-15T01:25:51.277Z,97697.45
2018-02-15T01:26:55.947Z,97696.61
2018-02-15T01:28:00.841Z,97702.36
2018-02-15T01:29:05.567Z,97704.02
2018-02-15T01:30:10.910Z,97704.81
2018-02-15T01:31:15.573Z,97687.17
2018-02-15T01:32:20.942Z,97701.91
2018-02-15T01:33:26.523Z,97712.63
2018-02-15T01:34:31.147Z,97708.88
2018-02-15T01:35:35.780Z,97704.02
2018-02-15T01:36:42.086Z,97700.70
2018-02-15T01:37:47.380Z,97700.32
2018-02-15T01:38:52.702Z,97698.23
2018-02-15T01:39:57.195Z,97699.87
2018-02-15T01:41:01.722Z,97704.83
2018-02-15T01:42:06.723Z,97696.95
2018-02-15T01:43:11.517Z,97694.50
2018-02-15T01:44:16.208Z,97698.22
2018-02-15T01:45:20.593Z,97698.17
2018-02-15T01:46:25.004Z,97689.12
2018-02-15T01:47:29.759Z,97696.08
2018-02-15T01:48:34.384Z,97691.13
2018-02-15T01:49:45.098Z,97685.40
2018-02-15T01:50:49.918Z,97707.63
2018-02-15T01:51:54.919Z,97678.75
2018-02-15T01:52:59.694Z,97694.46
2018-02-15T01:54:05.591Z,97693.96
2018-02-15T01:55:10.993Z,97694.81
2018-02-15T01:56:15.943Z,97683.25
2018-02-15T01:57:20.352Z,97678.81
2018-02-15T01:58:24.772Z,97679.19
2018-02-15T01:59:30.084Z,97672.20
2018-02-15T02:00:34.604Z,97654.09
2018-02-15T02:01:39.238Z,97653.27
2018-02-15T02:02:45.004Z,97653.72
2018-02-15T02:03:49.755Z,97675.56
2018-02-15T02:04:54.381Z,97673.08
2018-02-15T02:05:58.864Z,97663.20
2018-02-15T02:07:04.154Z,97656.62
2018-02-15T02:08:08.647Z,97656.16
2018-02-15T02:09:13.443Z,97662.34
2018-02-15T02:10:18.078Z,97641.36
2018-02-15T02:11:22.718Z,97630.63
2018-02-15T02:12:28.850Z,97634.38
2018-02-15T02:13:33.707Z,97634.48
2018-02-15T02:14:38.335Z,97628.33
2018-02-15T02:15:43.270Z,97624.19
2018-02-15T02:16:48.124Z,97630.73
2018-02-15T02:19:08.964Z,97625.00
2018-02-15T02:20:14.045Z,97628.69
2018-02-15T02:21:19.004Z,97631.53
2018-02-15T02:22:23.759Z,97628.14
2018-02-15T02:23:28.891Z,97633.95
2018-02-15T02:24:34.166Z,97634.02
2018-02-15T02:25:39.260Z,97624.61
2018-02-15T02:26:45.253Z,97624.59
2018-02-15T02:27:50.800Z,97618.84
2018-02-15T02:28:56.315Z,97628.67
2018-02-15T02:30:01.151Z,97624.16
2018-02-15T02:31:07.012Z,97625.35
2018-02-15T02:32:11.629Z,97624.47
2018-02-15T02:33:17.193Z,97627.84
2018-02-15T02:34:21.793Z,97621.66
2018-02-15T02:35:26.436Z,97629.05
2018-02-15T02:36:31.016Z,97621.26
2018-02-15T02:37:36.220Z,97625.77
2018-02-15T02:38:40.742Z,97631.45
2018-02-15T02:39:45.469Z,97621.20
2018-02-15T02:40:50.729Z,97613.79
2018-02-15T02:41:56.238Z,97614.28
2018-02-15T02:43:00.877Z,97629.92
2018-02-15T02:44:05.930Z,97612.59
2018-02-15T02:45:10.610Z,97625.37
2018-02-15T02:46:15.186Z,97624.52
2018-02-15T02:47:20.050Z,97622.81
2018-02-15T02:48:24.683Z,97620.39
2018-02-15T02:49:29.313Z,97627.05
2018-02-15T02:50:33.927Z,97622.94
2018-02-15T02:51:38.540Z,97624.97
2018-02-15T02:52:43.165Z,97622.92
2018-02-15T02:53:48.167Z,97622.45
2018-02-15T02:54:53.383Z,97633.11
2018-02-15T02:55:58.085Z,97615.87
2018-02-15T02:57:03.200Z,97610.90
2018-02-15T02:58:07.767Z,97600.24
2018-02-15T02:59:12.359Z,97599.38
2018-02-15T03:00:17.811Z,97598.15
2018-02-15T03:01:23.211Z,97598.13
2018-02-15T03:02:27.931Z,97598.05
2018-02-15T03:03:32.685Z,97599.70
2018-02-15T03:04:37.969Z,97589.00
2018-02-15T03:05:42.769Z,97592.66
2018-02-15T03:06:47.800Z,97587.77
2018-02-15T03:07:52.445Z,97586.55
2018-02-15T03:08:56.946Z,97591.41
2018-02-15T03:10:02.764Z,97589.25
2018-02-15T03:11:07.676Z,97590.45
2018-02-15T03:12:12.917Z,97578.55
2018-02-15T03:13:19.231Z,97588.44
2018-02-15T03:14:24.534Z,97582.31
2018-02-15T03:15:29.811Z,97598.91
2018-02-15T03:16:35.407Z,97586.70
2018-02-15T03:17:40.165Z,97593.74
2018-02-15T03:18:44.903Z,97601.64
2018-02-15T03:19:51.776Z,97596.67
2018-02-15T03:20:56.606Z,97604.51
2018-02-15T03:22:02.444Z,97599.61
2018-02-15T03:23:07.021Z,97588.92
2018-02-15T03:24:12.308Z,97598.42
2018-02-15T03:25:16.914Z,97599.58
2018-02-15T03:26:21.789Z,97592.20
2018-02-15T03:27:26.383Z,97590.94
2018-02-15T03:28:31.791Z,97588.47
2018-02-15T03:29:36.440Z,97603.68
2018-02-15T03:30:41.044Z,97593.81
2018-02-15T03:31:45.777Z,97595.44
2018-02-15T03:32:51.195Z,97582.34
2018-02-15T03:33:55.936Z,97590.95
2018-02-15T03:35:01.174Z,97588.12
2018-02-15T03:36:05.881Z,97606.27
2018-02-15T03:37:10.659Z,97598.31
2018-02-15T03:38:16.244Z,97595.89
2018-02-15T03:39:21.537Z,97604.93
2018-02-15T03:40:26.145Z,97598.84
2018-02-15T03:41:31.773Z,97600.06
2018-02-15T03:42:36.413Z,97604.58
2018-02-15T03:43:42.189Z,97600.91
2018-02-15T03:44:46.701Z,97603.00
2018-02-15T03:45:51.696Z,97606.23
2018-02-15T03:46:56.557Z,97600.92
2018-02-15T03:48:01.245Z,97601.27
2018-02-15T03:49:05.832Z,97612.44
2018-02-15T03:50:10.625Z,97600.44
2018-02-15T03:51:15.834Z,97606.30
2018-02-15T03:52:20.883Z,97608.63
2018-02-15T03:53:25.674Z,97616.02
2018-02-15T03:54:30.441Z,97604.69
2018-02-15T03:55:36.274Z,97612.09
2018-02-15T03:56:41.004Z,97610.39
2018-02-15T03:57:45.771Z,97602.17
2018-02-15T03:58:51.105Z,97606.33
2018-02-15T03:59:56.466Z,97601.85
2018-02-15T04:01:01.223Z,97596.88
2018-02-15T04:02:06.699Z,97604.32
2018-02-15T04:03:11.432Z,97602.23
2018-02-15T04:04:17.204Z,97603.11
2018-02-15T04:05:24.190Z,97611.00
2018-02-15T04:06:29.325Z,97600.31
2018-02-15T04:07:34.233Z,97603.58
2018-02-15T04:08:39.126Z,97598.28
2018-02-15T04:09:45.211Z,97594.61
2018-02-15T04:10:50.245Z,97581.84
2018-02-15T04:11:56.147Z,97586.80
2018-02-15T04:13:01.924Z,97593.78
2018-02-15T04:14:07.851Z,97584.77
2018-02-15T04:15:13.275Z,97587.63
2018-02-15T04:16:18.250Z,97583.48
2018-02-15T04:17:23.372Z,97581.02
2018-02-15T04:18:28.638Z,97581.78
2018-02-15T04:19:33.245Z,97579.39
2018-02-15T04:20:37.846Z,97578.14
2018-02-15T04:21:42.895Z,97584.30
2018-02-15T04:22:49.044Z,97591.66
2018-02-15T04:23:55.298Z,97579.73
2018-02-15T04:25:00.252Z,97595.41
2018-02-15T04:26:05.650Z,97590.09
2018-02-15T04:27:13.770Z,97583.39
2018-02-15T04:28:18.459Z,97588.81
2018-02-15T04:29:23.254Z,97597.47
2018-02-15T04:30:28.549Z,97586.38
2018-02-15T04:31:33.854Z,97593.69
2018-02-15T04:32:39.808Z,97598.63
2018-02-15T04:33:45.764Z,97607.23
2018-02-15T04:34:51.142Z,97604.84
2018-02-15T04:35:56.441Z,97614.70
2018-02-15T04:37:01.484Z,97606.02
2018-02-15T04:38:06.476Z,97604.78
2018-02-15T04:39:11.335Z,97603.58
2018-02-15T04:40:16.697Z,97604.74
2018-02-15T04:41:21.446Z,97593.72
2018-02-15T04:42:26.220Z,97603.61
2018-02-15T04:43:30.803Z,97603.58
2018-02-15T04:44:36.156Z,97610.97
2018-02-15T04:45:40.853Z,97613.00
2018-02-15T04:46:45.820Z,97599.44
2018-02-15T04:47:50.406Z,97605.23
2018-02-15T04:48:55.752Z,97592.45
2018-02-15T04:50:00.395Z,97598.22
2018-02-15T04:51:05.315Z,97584.25
2018-02-15T04:52:09.930Z,97599.52
2018-02-15T04:53:14.529Z,97598.61
2018-02-15T04:56:39.046Z,97597.35
2018-02-15T04:57:44.139Z,97602.68
2018-02-15T04:58:49.561Z,97604.27
2018-02-15T04:59:55.054Z,97602.66
2018-02-15T05:01:00.670Z,97603.91
2018-02-15T05:02:05.739Z,97598.11
2018-02-15T05:03:12.540Z,97591.98
2018-02-15T05:04:17.266Z,97596.90
2018-02-15T05:05:22.029Z,97602.66
2018-02-15T05:06:27.083Z,97603.84
2018-02-15T05:07:31.866Z,97587.02
2018-02-15T05:08:36.484Z,97591.53
2018-02-15T05:09:41.541Z,97591.13
2018-02-15T05:10:46.286Z,97595.92
2018-02-15T05:11:50.968Z,97601.30
2018-02-15T05:12:55.697Z,97605.86
2018-02-15T05:14:00.385Z,97604.67
2018-02-15T05:15:05.384Z,97611.70
2018-02-15T05:16:10.390Z,97598.09
2018-02-15T05:17:15.088Z,97599.79
2018-02-15T05:18:19.926Z,97593.16
2018-02-15T05:19:26.066Z,97606.73
2018-02-15T05:20:30.701Z,97595.22
2018-02-15T05:21:35.766Z,97605.89
2018-02-15T05:22:40.673Z,97596.02
2018-02-15T05:24:54.619Z,97587.43
2018-02-15T05:25:59.101Z,97593.60
2018-02-15T05:27:04.049Z,97586.59
2018-02-15T05:28:09.883Z,97595.61
2018-02-15T05:29:14.416Z,97598.55
2018-02-15T05:30:19.004Z,97572.64
2018-02-15T05:31:23.624Z,97586.64
2018-02-15T05:32:28.207Z,97574.33
2018-02-15T05:33:33.134Z,97586.64
2018-02-15T05:34:38.714Z,97576.84
2018-02-15T05:35:43.396Z,97602.72
2018-02-15T05:36:48.122Z,97595.36
2018-02-15T05:37:52.819Z,97600.77
2018-02-15T05:38:57.630Z,97593.30
2018-02-15T05:40:02.811Z,97585.06
2018-02-15T05:41:08.592Z,97583.49
2018-02-15T05:42:13.087Z,97588.11
2018-02-15T05:43:18.236Z,97594.78
2018-02-15T05:44:22.833Z,97600.13
2018-02-15T05:45:27.413Z,97583.05
2018-02-15T05:46:32.039Z,97588.84
2018-02-15T05:47:36.907Z,97579.80
2018-02-15T05:48:41.540Z,97578.30
2018-02-15T05:49:47.549Z,97574.20
2018-02-15T05:50:53.347Z,97580.06
2018-02-15T05:51:58.058Z,97592.34
2018-02-15T05:53:02.771Z,97569.03
2018-02-15T05:54:08.213Z,97584.67
2018-02-15T05:55:12.803Z,97582.68
2018-02-15T05:56:17.496Z,97576.92
2018-02-15T05:57:22.078Z,97571.59
2018-02-15T05:58:26.546Z,97591.38
2018-02-15T05:59:31.497Z,97589.27
2018-02-15T06:00:36.910Z,97578.70
2018-02-15T06:01:41.979Z,97568.95
2018-02-15T06:02:47.268Z,97580.52
2018-02-15T06:03:52.844Z,97574.02
2018-02-15T06:04:57.559Z,97581.41
2018-02-15T06:06:02.214Z,97591.23
2018-02-15T06:07:06.959Z,97588.06
2018-02-15T06:08:11.748Z,97582.73
2018-02-15T06:09:17.142Z,97579.09
2018-02-15T06:10:21.933Z,97586.91
2018-02-15T06:11:27.561Z,97580.80
2018-02-15T06:12:32.683Z,97576.71
2018-02-15T06:13:38.124Z,97570.96
2018-02-15T06:14:42.793Z,97577.23
2018-02-15T06:15:48.829Z,97573.55
2018-02-15T06:16:53.464Z,97573.61
2018-02-15T06:17:58.136Z,97576.16
2018-02-15T06:19:02.790Z,97565.03
2018-02-15T06:20:12.496Z,97568.31
2018-02-15T06:21:17.151Z,97574.09
2018-02-15T06:22:22.864Z,97577.00
2018-02-15T06:23:27.653Z,97568.72
2018-02-15T06:24:32.722Z,97570.44
2018-02-15T06:25:37.604Z,97576.63
2018-02-15T06:26:42.414Z,97567.59
2018-02-15T06:27:47.403Z,97567.10
2018-02-15T06:28:52.954Z,97555.57
2018-02-15T06:29:58.947Z,97560.14
2018-02-15T06:31:03.752Z,97554.79
2018-02-15T06:32:09.688Z,97545.38
2018-02-15T06:33:14.962Z,97541.34
2018-02-15T06:34:20.450Z,97559.84
2018-02-15T06:35:26.729Z,97545.41
2018-02-15T06:36:32.272Z,97550.67
2018-02-15T06:37:37.145Z,97553.20
2018-02-15T06:38:42.079Z,97549.90
2018-02-15T06:39:46.914Z,97558.14
2018-02-15T06:40:52.010Z,97550.72
2018-02-15T06:41:56.718Z,97555.69
2018-02-15T06:43:01.922Z,97542.95
2018-02-15T06:44:07.767Z,97551.14
2018-02-15T06:45:13.012Z,97542.09
2018-02-15T06:46:18.115Z,97545.44
2018-02-15T06:47:23.817Z,97555.30
2018-02-15T06:48:28.594Z,97548.30
2018-02-15T06:49:34.356Z,97547.48
2018-02-15T06:50:40.984Z,97549.13
2018-02-15T06:51:45.793Z,97564.31
2018-02-15T06:52:50.652Z,97556.52
2018-02-15T06:53:55.444Z,97540.92
2018-02-15T06:55:00.601Z,97539.29
2018-02-15T06:56:05.697Z,97557.36
2018-02-15T06:57:10.549Z,97549.63
2018-02-15T06:58:15.357Z,97548.02
2018-02-15T06:59:20.173Z,97540.19
2018-02-15T07:00:25.527Z,97550.77
2018-02-15T07:01:30.369Z,97537.81
2018-02-15T07:02:35.489Z,97547.95
2018-02-15T07:03:40.269Z,97546.78
2018-02-15T07:04:45.254Z,97548.88
2018-02-15T07:05:50.095Z,97543.62
2018-02-15T07:06:55.022Z,97549.74
2018-02-15T07:07:59.914Z,97549.72
2018-02-15T07:09:05.404Z,97545.99
2018-02-15T07:10:10.370Z,97535.41
2018-02-15T07:11:15.085Z,97530.51
2018-02-15T07:12:19.904Z,97535.09
2018-02-15T07:13:24.633Z,97536.34
2018-02-15T07:14:30.057Z,97532.63
2018-02-15T07:15:35.962Z,97533.07
2018-02-15T07:16:42.065Z,97548.27
2018-02-15T07:17:47.717Z,97537.20
2018-02-15T07:18:53.589Z,97528.97
2018-02-15T07:19:59.750Z,97549.44
2018-02-15T07:21:04.937Z,97545.33
2018-02-15T07:22:11.724Z,97551.53
2018-02-15T07:23:17.456Z,97547.88
2018-02-15T07:24:22.428Z,97549.48
2018-02-15T07:25:28.021Z,97544.92
2018-02-15T07:26:32.897Z,97554.41
2018-02-15T07:27:39.317Z,97558.92
2018-02-15T07:28:44.337Z,97540.80
2018-02-15T07:29:49.019Z,97548.22
2018-02-15T07:30:53.640Z,97542.87
2018-02-15T07:31:59.619Z,97544.47
2018-02-15T07:33:04.479Z,97553.13
2018-02-15T07:34:10.792Z,97535.92
2018-02-15T07:35:15.779Z,97551.48
2018-02-15T07:36:20.508Z,97555.60
2018-02-15T07:37:25.186Z,97554.78
2018-02-15T07:38:31.696Z,97559.27
2018-02-15T07:39:36.470Z,97558.51
2018-02-15T07:40:41.274Z,97549.58
2018-02-15T07:41:46.912Z,97552.02
2018-02-15T07:42:53.117Z,97555.70
2018-02-15T07:43:57.944Z,97552.37
2018-02-15T07:45:03.949Z,97558.88
2018-02-15T07:46:08.749Z,97550.66
2018-02-15T07:47:13.590Z,97537.66
2018-02-15T07:48:19.420Z,97554.47
2018-02-15T07:49:24.287Z,97564.75
2018-02-15T07:50:29.530Z,97555.70
2018-02-15T07:51:34.917Z,97565.22
2018-02-15T07:52:40.079Z,97563.86
2018-02-15T07:53:46.593Z,97562.68
2018-02-15T07:54:51.865Z,97565.97
2018-02-15T07:55:56.815Z,97563.00
2018-02-15T07:57:02.201Z,97562.28
2018-02-15T07:58:08.144Z,97559.86
2018-02-15T07:59:13.336Z,97556.99
2018-02-15T08:00:19.208Z,97560.66
2018-02-15T08:01:24.488Z,97556.19
2018-02-15T08:02:30.821Z,97548.82
2018-02-15T08:03:35.937Z,97555.72
2018-02-15T08:04:40.713Z,97538.52
2018-02-15T08:05:46.083Z,97540.16
2018-02-15T08:06:51.046Z,97538.07
2018-02-15T08:07:56.724Z,97535.18
2018-02-15T08:09:02.719Z,97541.33
2018-02-15T08:10:07.558Z,97537.73
2018-02-15T08:11:12.792Z,97541.31
2018-02-15T08:12:18.529Z,97536.88
2018-02-15T08:13:23.602Z,97541.34
2018-02-15T08:14:28.375Z,97531.48
2018-02-15T08:15:33.113Z,97540.05
2018-02-15T08:16:37.855Z,97532.25
2018-02-15T08:17:42.692Z,97524.42
2018-02-15T08:18:48.080Z,97528.88
2018-02-15T08:19:54.259Z,97528.09
2018-02-15T08:21:00.463Z,97543.27
2018-02-15T08:22:05.437Z,97549.81
2018-02-15T08:23:11.026Z,97534.56
2018-02-15T08:24:15.714Z,97533.74
2018-02-15T08:25:20.542Z,97525.92
2018-02-15T08:26:25.596Z,97528.38
2018-02-15T08:27:30.349Z,97528.71
2018-02-15T08:28:35.798Z,97531.22
2018-02-15T08:29:40.535Z,97536.15
2018-02-15T08:30:45.877Z,97525.86
2018-02-15T08:31:50.636Z,97538.59
2018-02-15T08:32:56.239Z,97536.05
2018-02-15T08:34:01.057Z,97529.52
2018-02-15T08:35:05.853Z,97541.41
2018-02-15T08:36:10.509Z,97530.70
2018-02-15T08:37:15.161Z,97532.38
2018-02-15T08:38:20.268Z,97534.78
2018-02-15T08:39:25.428Z,97542.95
2018-02-15T08:41:40.782Z,97531.84
2018-02-15T08:42:45.863Z,97528.52
2018-02-15T08:43:52.189Z,97522.64
2018-02-15T08:44:58.743Z,97517.44
2018-02-15T08:46:04.133Z,97523.55
2018-02-15T08:47:08.792Z,97523.90
2018-02-15T08:48:13.564Z,97519.01
2018-02-15T08:49:18.397Z,97523.02
2018-02-15T08:50:23.237Z,97533.34
2018-02-15T08:51:28.202Z,97515.29
2018-02-15T08:52:33.750Z,97517.69
2018-02-15T08:53:38.608Z,97514.77
2018-02-15T08:54:43.315Z,97513.52
2018-02-15T08:55:48.052Z,97511.48
2018-02-15T08:56:54.560Z,97518.41
2018-02-15T08:57:59.806Z,97519.19
2018-02-15T08:59:04.488Z,97525.73
2018-02-15T09:00:10.188Z,97523.97
2018-02-15T09:01:15.831Z,97523.97
2018-02-15T09:02:21.113Z,97522.78
2018-02-15T09:03:26.657Z,97524.02
2018-02-15T09:04:31.640Z,97533.06
2018-02-15T09:05:36.390Z,97526.84
2018-02-15T09:06:41.081Z,97533.55
2018-02-15T09:07:46.478Z,97524.91
2018-02-15T09:08:51.758Z,97531.44
2018-02-15T09:09:56.778Z,97537.18
2018-02-15T09:11:01.743Z,97542.96
2018-02-15T09:12:06.636Z,97534.30
2018-02-15T09:13:11.333Z,97530.68
2018-02-15T09:14:16.990Z,97527.00
2018-02-15T09:15:21.807Z,97532.30
2018-02-15T09:16:26.337Z,97544.22
2018-02-15T09:17:31.144Z,97532.22
2018-02-15T09:18:35.650Z,97545.77
2018-02-15T09:19:40.238Z,97536.79
2018-02-15T09:20:44.888Z,97536.81
2018-02-15T09:21:49.547Z,97538.80
2018-02-15T09:22:54.297Z,97537.13
2018-02-15T09:23:59.143Z,97523.98
2018-02-15T09:25:03.770Z,97530.95
2018-02-15T09:26:08.475Z,97529.01
2018-02-15T09:27:13.058Z,97538.48
2018-02-15T09:28:17.692Z,97520.41
2018-02-15T09:29:22.264Z,97524.47
2018-02-15T09:30:27.264Z,97535.48
2018-02-15T09:31:32.032Z,97538.27
2018-02-15T09:32:36.861Z,97537.09
2018-02-15T09:33:41.756Z,97541.21
2018-02-15T09:34:46.478Z,97544.84
2018-02-15T09:35:51.262Z,97541.55
2018-02-15T09:36:56.332Z,97542.76
2018-02-15T09:38:01.102Z,97536.22
2018-02-15T09:39:06.114Z,97537.09
2018-02-15T09:40:10.856Z,97545.67
2018-02-15T09:41:15.746Z,97541.67
2018-02-15T09:42:20.502Z,97535.55
2018-02-15T09:43:25.225Z,97547.12
2018-02-15T09:44:30.537Z,97540.50
2018-02-15T09:45:35.337Z,97521.20
2018-02-15T09:46:40.214Z,97538.84
2018-02-15T09:47:46.010Z,97533.47
2018-02-15T09:48:51.161Z,97538.83
2018-02-15T09:49:55.866Z,97536.42
2018-02-15T09:51:00.531Z,97540.80
2018-02-15T09:52:05.209Z,97537.95
2018-02-15T09:53:09.955Z,97533.53
2018-02-15T09:54:15.026Z,97539.72
2018-02-15T09:55:20.077Z,97532.73
2018-02-15T09:56:24.877Z,97528.54
2018-02-15T09:57:29.668Z,97534.32
2018-02-15T09:58:34.461Z,97534.75
2018-02-15T09:59:39.253Z,97538.45
2018-02-15T10:00:44.001Z,97538.74
2018-02-15T10:01:49.193Z,97542.09
2018-02-15T10:02:54.956Z,97549.55
2018-02-15T10:04:00.826Z,97543.83
2018-02-15T10:05:05.615Z,97549.56
2018-02-15T10:06:10.724Z,97544.60
2018-02-15T10:07:15.721Z,97541.73
2018-02-15T10:08:21.182Z,97538.91
2018-02-15T10:09:26.197Z,97540.56
2018-02-15T10:10:31.045Z,97539.25
2018-02-15T10:11:35.713Z,97539.72
2018-02-15T10:12:40.457Z,97540.59
2018-02-15T10:13:45.725Z,97531.92
2018-02-15T10:14:50.730Z,97530.69
2018-02-15T10:15:55.515Z,97534.81
2018-02-15T10:17:01.140Z,97544.60
2018-02-15T10:18:05.903Z,97533.88
2018-02-15T10:19:10.654Z,97538.41
2018-02-15T10:20:15.398Z,97521.23
2018-02-15T10:21:21.078Z,97520.77
2018-02-15T10:22:26.701Z,97519.11
2018-02-15T10:23:31.479Z,97514.88
2018-02-15T10:24:36.329Z,97523.49
2018-02-15T10:25:41.558Z,97508.28
2018-02-15T10:26:46.163Z,97507.06
2018-02-15T10:27:51.253Z,97515.19
2018-02-15T10:28:55.900Z,97510.30
2018-02-15T10:30:01.726Z,97516.03
2018-02-15T10:31:07.039Z,97511.86
2018-02-15T10:32:11.860Z,97509.78
2018-02-15T10:33:16.595Z,97520.34
2018-02-15T10:34:21.833Z,97514.18
2018-02-15T10:35:26.538Z,97523.27
2018-02-15T10:36:31.431Z,97518.20
2018-02-15T10:37:37.125Z,97515.81
2018-02-15T10:38:41.718Z,97513.24
2018-02-15T10:39:46.502Z,97505.00
2018-02-15T10:40:51.690Z,97498.84
2018-02-15T10:41:56.504Z,97501.22
2018-02-15T10:43:01.695Z,97502.84
2018-02-15T10:44:07.613Z,97502.77
2018-02-15T10:45:13.204Z,97500.59
2018-02-15T10:46:17.896Z,97502.33
2018-02-15T10:47:22.971Z,97500.53
2018-02-15T10:48:27.684Z,97498.09
2018-02-15T10:49:33.211Z,97491.48
2018-02-15T10:50:38.545Z,97500.02
2018-02-15T10:51:43.319Z,97495.05
2018-02-15T10:52:47.968Z,97494.17
2018-02-15T10:53:53.117Z,97497.88
2018-02-15T10:54:58.105Z,97492.41
2018-02-15T10:56:04.055Z,97493.67
2018-02-15T10:57:10.384Z,97496.92
2018-02-15T10:58:15.717Z,97500.58
2018-02-15T10:59:20.874Z,97500.73
2018-02-15T11:00:30.332Z,97511.31
2018-02-15T11:01:39.451Z,97508.47
2018-02-15T11:02:44.893Z,97511.27
2018-02-15T11:03:53.773Z,97511.55
2018-02-15T11:05:03.092Z,97511.19
2018-02-15T11:06:08.299Z,97516.05
2018-02-15T11:07:13.674Z,97513.45
2018-02-15T11:08:18.354Z,97513.47
2018-02-15T11:09:23.099Z,97511.08
2018-02-15T11:10:27.951Z,97512.29
2018-02-15T11:11:33.153Z,97512.69
2018-02-15T11:12:37.798Z,97509.41
2018-02-15T11:13:42.740Z,97515.93
2018-02-15T11:14:47.677Z,97522.46
2018-02-15T11:15:52.207Z,97520.71
2018-02-15T11:16:56.724Z,97522.01
2018-02-15T11:18:01.498Z,97524.88
2018-02-15T11:19:07.713Z,97518.11
2018-02-15T11:20:12.713Z,97531.64
2018-02-15T11:21:17.423Z,97522.09
2018-02-15T11:22:22.172Z,97524.06
2018-02-15T11:23:26.870Z,97516.22
2018-02-15T11:24:31.591Z,97524.05
2018-02-15T11:25:36.637Z,97526.62
2018-02-15T11:26:42.414Z,97527.36
2018-02-15T11:27:47.541Z,97526.42
2018-02-15T11:28:52.170Z,97524.26
2018-02-15T11:29:56.891Z,97529.98
2018-02-15T11:31:02.846Z,97523.72
2018-02-15T11:32:09.004Z,97521.57
2018-02-15T11:33:13.566Z,97525.24
2018-02-15T11:34:18.263Z,97526.48
2018-02-15T11:35:24.137Z,97524.91
2018-02-15T11:36:28.984Z,97526.98
2018-02-15T11:37:33.962Z,97527.31
2018-02-15T11:38:40.041Z,97531.44
2018-02-15T11:39:46.147Z,97532.25
2018-02-15T11:40:53.840Z,97533.88
2018-02-15T11:41:58.480Z,97533.95
2018-02-15T11:43:04.149Z,97525.55
2018-02-15T11:44:09.166Z,97528.78
2018-02-15T11:45:14.875Z,97541.46
2018-02-15T11:46:19.579Z,97544.84
2018-02-15T11:47:24.699Z,97541.92
2018-02-15T11:48:29.656Z,97538.53
2018-02-15T11:49:34.432Z,97538.48
2018-02-15T11:50:39.179Z,97540.02
2018-02-15T11:51:44.263Z,97538.30
2018-02-15T11:52:50.099Z,97542.05
2018-02-15T11:53:54.914Z,97538.71
2018-02-15T11:54:59.618Z,97537.45
2018-02-15T11:56:04.389Z,97541.88
2018-02-15T11:57:09.392Z,97542.28
2018-02-15T11:58:15.519Z,97541.57
2018-02-15T11:59:20.774Z,97541.86
2018-02-15T12:00:26.006Z,97539.79
2018-02-15T12:01:30.616Z,97541.57
2018-02-15T12:02:35.106Z,97541.91
2018-02-15T12:03:39.925Z,97539.03
2018-02-15T12:04:45.586Z,97534.08
2018-02-15T12:05:50.327Z,97535.70
2018-02-15T12:06:55.023Z,97531.56
2018-02-15T12:08:00.038Z,97530.71
2018-02-15T12:09:04.928Z,97533.13
2018-02-15T12:10:09.585Z,97529.94
2018-02-15T12:11:14.874Z,97535.18
2018-02-15T12:12:20.501Z,97524.40
2018-02-15T12:13:25.685Z,97531.05
2018-02-15T12:14:30.785Z,97535.12
2018-02-15T12:15:36.278Z,97540.14
2018-02-15T12:16:40.988Z,97536.44
2018-02-15T12:17:48.080Z,97535.55
2018-02-15T12:18:53.616Z,97532.70
2018-02-15T12:19:58.762Z,97526.61
2018-02-15T12:21:04.514Z,97526.52
2018-02-15T12:22:09.520Z,97522.80
2018-02-15T12:23:14.854Z,97519.03
2018-02-15T12:24:20.028Z,97515.38
2018-02-15T12:25:26.316Z,97520.38
2018-02-15T12:26:30.966Z,97529.94
2018-02-15T12:27:35.553Z,97533.16
2018-02-15T12:28:40.296Z,97530.30
2018-02-15T12:29:45.190Z,97530.64
2018-02-15T12:30:50.541Z,97534.41
2018-02-15T12:31:55.349Z,97536.82
2018-02-15T12:33:00.115Z,97533.15
2018-02-15T12:34:04.817Z,97535.60
2018-02-15T12:35:09.447Z,97542.48
2018-02-15T12:36:14.495Z,97540.97
2018-02-15T12:37:20.440Z,97535.56
2018-02-15T12:38:26.442Z,97530.97
2018-02-15T12:39:31.552Z,97519.73
2018-02-15T12:40:36.311Z,97523.76
2018-02-15T12:41:41.617Z,97516.28
2018-02-15T12:42:47.303Z,97525.23
2018-02-15T12:43:52.704Z,97528.11
2018-02-15T12:44:58.747Z,97532.66
2018-02-15T12:46:04.462Z,97529.66
2018-02-15T12:47:09.517Z,97533.00
2018-02-15T12:48:14.479Z,97527.73
2018-02-15T12:49:19.606Z,97528.19
2018-02-15T12:50:24.824Z,97532.62